sensor_id;sensor_type;location;lat;lon;timestamp;P1;durP1;ratioP1;P2;durP2;ratioP2
15878;SDS011;61999;51.514;14.614;2022-12-07T00:01:42;1.87;;;1.50;;
15878;SDS011;61999;51.514;14.614;2022-12-07T00:04:13;1.47;;;1.37;;
15878;SDS011;61999;51.514;14.614;2022-12-07T00:06:45;2.63;;;1.63;;
15878;SDS011;61999;51.514;14.614;2022-12-07T00:09:18;1.43;;;1.33;;
15878;SDS011;61999;51.514;14.614;2022-12-07T00:11:48;0.90;;;0.90;;
15878;SDS011;61999;51.514;14.614;2022-12-07T00:14:18;1.50;;;1.40;;
15878;SDS011;61999;51.514;14.614;2022-12-07T00:16:48;1.53;;;1.43;;
15878;SDS011;61999;51.514;14.614;2022-12-07T00:19:20;2.23;;;1.90;;
15878;SDS011;61999;51.514;14.614;2022-12-07T00:21:48;1.70;;;1.60;;
15878;SDS011;61999;51.514;14.614;2022-12-07T00:24:16;2.83;;;1.80;;
15878;SDS011;61999;51.514;14.614;2022-12-07T00:26:44;1.40;;;1.30;;
15878;SDS011;61999;51.514;14.614;2022-12-07T00:29:13;1.30;;;1.20;;
15878;SDS011;61999;51.514;14.614;2022-12-07T00:31:45;1.80;;;1.70;;
15878;SDS011;61999;51.514;14.614;2022-12-07T00:38:21;2.30;;;2.10;;
15878;SDS011;61999;51.514;14.614;2022-12-07T00:40:53;3.00;;;2.20;;
15878;SDS011;61999;51.514;14.614;2022-12-07T00:43:23;2.50;;;2.30;;
15878;SDS011;61999;51.514;14.614;2022-12-07T00:45:51;2.97;;;2.50;;
15878;SDS011;61999;51.514;14.614;2022-12-07T00:48:20;3.17;;;2.17;;
15878;SDS011;61999;51.514;14.614;2022-12-07T00:50:49;3.40;;;2.87;;
15878;SDS011;61999;51.514;14.614;2022-12-07T00:53:18;3.43;;;2.10;;
15878;SDS011;61999;51.514;14.614;2022-12-07T00:55:47;3.87;;;2.90;;
15878;SDS011;61999;51.514;14.614;2022-12-07T00:58:16;2.53;;;2.27;;
15878;SDS011;61999;51.514;14.614;2022-12-07T01:00:44;3.43;;;2.73;;
15878;SDS011;61999;51.514;14.614;2022-12-07T01:03:12;1.67;;;1.47;;
15878;SDS011;61999;51.514;14.614;2022-12-07T01:05:48;4.37;;;2.93;;
15878;SDS011;61999;51.514;14.614;2022-12-07T01:08:18;5.37;;;3.67;;
15878;SDS011;61999;51.514;14.614;2022-12-07T01:10:48;4.50;;;3.30;;
15878;SDS011;61999;51.514;14.614;2022-12-07T01:13:16;4.20;;;2.70;;
15878;SDS011;61999;51.514;14.614;2022-12-07T01:15:45;6.73;;;4.50;;
15878;SDS011;61999;51.514;14.614;2022-12-07T01:18:13;5.17;;;4.20;;
15878;SDS011;61999;51.514;14.614;2022-12-07T01:20:41;6.33;;;4.83;;
15878;SDS011;61999;51.514;14.614;2022-12-07T01:23:09;7.20;;;4.83;;
15878;SDS011;61999;51.514;14.614;2022-12-07T01:25:37;7.67;;;4.57;;
15878;SDS011;61999;51.514;14.614;2022-12-07T01:28:06;7.20;;;5.00;;
15878;SDS011;61999;51.514;14.614;2022-12-07T01:30:34;6.03;;;4.47;;
15878;SDS011;61999;51.514;14.614;2022-12-07T01:33:02;9.53;;;6.43;;
15878;SDS011;61999;51.514;14.614;2022-12-07T01:35:33;7.67;;;5.27;;
15878;SDS011;61999;51.514;14.614;2022-12-07T01:38:01;10.60;;;5.00;;
15878;SDS011;61999;51.514;14.614;2022-12-07T01:40:29;8.40;;;5.50;;
15878;SDS011;61999;51.514;14.614;2022-12-07T01:42:57;7.63;;;5.93;;
15878;SDS011;61999;51.514;14.614;2022-12-07T01:48:13;10.67;;;6.20;;
15878;SDS011;61999;51.514;14.614;2022-12-07T01:50:48;10.07;;;6.27;;
15878;SDS011;61999;51.514;14.614;2022-12-07T01:53:20;8.07;;;5.60;;
15878;SDS011;61999;51.514;14.614;2022-12-07T01:55:53;11.40;;;4.53;;
15878;SDS011;61999;51.514;14.614;2022-12-07T01:58:23;9.53;;;4.53;;
15878;SDS011;61999;51.514;14.614;2022-12-07T02:00:54;8.27;;;5.53;;
15878;SDS011;61999;51.514;14.614;2022-12-07T02:03:24;8.70;;;5.47;;
15878;SDS011;61999;51.514;14.614;2022-12-07T02:05:59;8.53;;;5.43;;
15878;SDS011;61999;51.514;14.614;2022-12-07T02:08:27;7.50;;;5.07;;
15878;SDS011;61999;51.514;14.614;2022-12-07T02:10:55;9.13;;;5.47;;
15878;SDS011;61999;51.514;14.614;2022-12-07T02:13:25;7.30;;;6.27;;
15878;SDS011;61999;51.514;14.614;2022-12-07T02:16:03;8.50;;;5.07;;
15878;SDS011;61999;51.514;14.614;2022-12-07T02:18:48;9.20;;;5.83;;
15878;SDS011;61999;51.514;14.614;2022-12-07T02:21:38;7.43;;;5.13;;
15878;SDS011;61999;51.514;14.614;2022-12-07T02:24:21;7.77;;;5.20;;
15878;SDS011;61999;51.514;14.614;2022-12-07T02:27:31;7.87;;;6.27;;
15878;SDS011;61999;51.514;14.614;2022-12-07T02:30:11;9.13;;;5.77;;
15878;SDS011;61999;51.514;14.614;2022-12-07T02:32:43;9.20;;;6.10;;
15878;SDS011;61999;51.514;14.614;2022-12-07T02:35:19;8.70;;;5.50;;
15878;SDS011;61999;51.514;14.614;2022-12-07T02:37:58;8.57;;;6.63;;
15878;SDS011;61999;51.514;14.614;2022-12-07T02:40:38;6.03;;;4.10;;
15878;SDS011;61999;51.514;14.614;2022-12-07T02:43:12;8.97;;;5.87;;
15878;SDS011;61999;51.514;14.614;2022-12-07T02:45:47;10.00;;;5.87;;
15878;SDS011;61999;51.514;14.614;2022-12-07T02:48:18;8.80;;;6.20;;
15878;SDS011;61999;51.514;14.614;2022-12-07T02:50:48;8.93;;;6.50;;
15878;SDS011;61999;51.514;14.614;2022-12-07T02:53:30;8.93;;;6.13;;
15878;SDS011;61999;51.514;14.614;2022-12-07T02:56:00;7.67;;;6.23;;
15878;SDS011;61999;51.514;14.614;2022-12-07T02:58:42;8.20;;;6.00;;
15878;SDS011;61999;51.514;14.614;2022-12-07T03:01:25;9.60;;;6.37;;
15878;SDS011;61999;51.514;14.614;2022-12-07T03:04:07;6.63;;;4.43;;
15878;SDS011;61999;51.514;14.614;2022-12-07T03:06:53;7.20;;;5.23;;
15878;SDS011;61999;51.514;14.614;2022-12-07T03:09:32;7.20;;;5.30;;
15878;SDS011;61999;51.514;14.614;2022-12-07T03:12:17;9.13;;;4.10;;
15878;SDS011;61999;51.514;14.614;2022-12-07T03:14:55;6.13;;;4.87;;
15878;SDS011;61999;51.514;14.614;2022-12-07T03:38:02;3.83;;;3.17;;
15878;SDS011;61999;51.514;14.614;2022-12-07T03:40:50;4.17;;;3.30;;
15878;SDS011;61999;51.514;14.614;2022-12-07T03:43:28;5.00;;;3.60;;
15878;SDS011;61999;51.514;14.614;2022-12-07T03:46:00;4.13;;;3.27;;
15878;SDS011;61999;51.514;14.614;2022-12-07T03:48:43;3.93;;;3.53;;
15878;SDS011;61999;51.514;14.614;2022-12-07T03:51:23;5.33;;;3.87;;
15878;SDS011;61999;51.514;14.614;2022-12-07T03:54:05;6.73;;;4.77;;
15878;SDS011;61999;51.514;14.614;2022-12-07T03:56:40;6.43;;;4.33;;
15878;SDS011;61999;51.514;14.614;2022-12-07T03:59:12;5.13;;;4.20;;
15878;SDS011;61999;51.514;14.614;2022-12-07T04:01:43;4.73;;;3.83;;
15878;SDS011;61999;51.514;14.614;2022-12-07T04:04:12;5.53;;;3.83;;
15878;SDS011;61999;51.514;14.614;2022-12-07T04:06:40;6.33;;;4.57;;
15878;SDS011;61999;51.514;14.614;2022-12-07T04:09:09;9.17;;;5.13;;
15878;SDS011;61999;51.514;14.614;2022-12-07T04:11:37;6.83;;;4.73;;
15878;SDS011;61999;51.514;14.614;2022-12-07T04:14:05;8.20;;;5.30;;
15878;SDS011;61999;51.514;14.614;2022-12-07T04:16:45;6.67;;;4.87;;
15878;SDS011;61999;51.514;14.614;2022-12-07T04:19:14;5.70;;;4.27;;
15878;SDS011;61999;51.514;14.614;2022-12-07T04:21:44;7.97;;;4.33;;
15878;SDS011;61999;51.514;14.614;2022-12-07T04:24:14;6.70;;;4.73;;
15878;SDS011;61999;51.514;14.614;2022-12-07T04:26:43;5.97;;;4.37;;
15878;SDS011;61999;51.514;14.614;2022-12-07T04:29:12;8.77;;;5.40;;
15878;SDS011;61999;51.514;14.614;2022-12-07T04:31:42;6.27;;;4.53;;
15878;SDS011;61999;51.514;14.614;2022-12-07T04:34:11;8.33;;;5.10;;
15878;SDS011;61999;51.514;14.614;2022-12-07T04:36:44;7.80;;;4.97;;
15878;SDS011;61999;51.514;14.614;2022-12-07T04:39:17;6.60;;;5.10;;
15878;SDS011;61999;51.514;14.614;2022-12-07T04:41:48;8.67;;;5.63;;
15878;SDS011;61999;51.514;14.614;2022-12-07T04:44:17;8.43;;;5.10;;
15878;SDS011;61999;51.514;14.614;2022-12-07T04:46:46;7.33;;;4.50;;
15878;SDS011;61999;51.514;14.614;2022-12-07T04:57:30;6.97;;;5.10;;
15878;SDS011;61999;51.514;14.614;2022-12-07T04:59:58;9.20;;;5.97;;
15878;SDS011;61999;51.514;14.614;2022-12-07T05:02:26;6.00;;;2.87;;
15878;SDS011;61999;51.514;14.614;2022-12-07T05:04:54;9.67;;;6.83;;
15878;SDS011;61999;51.514;14.614;2022-12-07T05:35:14;4.57;;;2.33;;
15878;SDS011;61999;51.514;14.614;2022-12-07T05:37:42;5.57;;;3.83;;
15878;SDS011;61999;51.514;14.614;2022-12-07T05:40:12;6.33;;;4.27;;
15878;SDS011;61999;51.514;14.614;2022-12-07T05:42:41;13.27;;;8.17;;
15878;SDS011;61999;51.514;14.614;2022-12-07T05:45:10;9.77;;;6.50;;
15878;SDS011;61999;51.514;14.614;2022-12-07T05:47:38;9.10;;;4.73;;
15878;SDS011;61999;51.514;14.614;2022-12-07T05:50:08;14.50;;;8.33;;
15878;SDS011;61999;51.514;14.614;2022-12-07T05:52:36;16.63;;;10.73;;
15878;SDS011;61999;51.514;14.614;2022-12-07T05:55:04;10.63;;;6.67;;
15878;SDS011;61999;51.514;14.614;2022-12-07T05:57:34;11.97;;;7.70;;
15878;SDS011;61999;51.514;14.614;2022-12-07T06:00:02;7.47;;;5.50;;
15878;SDS011;61999;51.514;14.614;2022-12-07T06:02:31;4.37;;;3.57;;
15878;SDS011;61999;51.514;14.614;2022-12-07T06:04:59;12.87;;;7.73;;
15878;SDS011;61999;51.514;14.614;2022-12-07T06:07:28;7.53;;;4.70;;
15878;SDS011;61999;51.514;14.614;2022-12-07T06:09:56;14.13;;;8.60;;
15878;SDS011;61999;51.514;14.614;2022-12-07T06:12:24;16.00;;;9.50;;
15878;SDS011;61999;51.514;14.614;2022-12-07T06:15:00;6.47;;;3.80;;
15878;SDS011;61999;51.514;14.614;2022-12-07T06:17:30;5.83;;;4.57;;
15878;SDS011;61999;51.514;14.614;2022-12-07T06:19:58;11.43;;;6.70;;
15878;SDS011;61999;51.514;14.614;2022-12-07T06:22:26;11.57;;;7.60;;
15878;SDS011;61999;51.514;14.614;2022-12-07T06:24:56;10.47;;;6.40;;
15878;SDS011;61999;51.514;14.614;2022-12-07T06:27:24;14.33;;;10.03;;
15878;SDS011;61999;51.514;14.614;2022-12-07T06:29:52;13.63;;;8.33;;
15878;SDS011;61999;51.514;14.614;2022-12-07T06:32:20;17.03;;;9.77;;
15878;SDS011;61999;51.514;14.614;2022-12-07T06:34:48;11.97;;;8.07;;
15878;SDS011;61999;51.514;14.614;2022-12-07T06:37:16;6.60;;;5.33;;
15878;SDS011;61999;51.514;14.614;2022-12-07T06:39:49;12.20;;;7.10;;
15878;SDS011;61999;51.514;14.614;2022-12-07T06:42:17;5.97;;;4.03;;
15878;SDS011;61999;51.514;14.614;2022-12-07T06:44:45;4.97;;;4.10;;
15878;SDS011;61999;51.514;14.614;2022-12-07T06:47:13;13.80;;;8.60;;
15878;SDS011;61999;51.514;14.614;2022-12-07T06:50:02;15.10;;;9.23;;
15878;SDS011;61999;51.514;14.614;2022-12-07T06:52:32;15.60;;;9.97;;
15878;SDS011;61999;51.514;14.614;2022-12-07T06:55:01;13.17;;;7.97;;
15878;SDS011;61999;51.514;14.614;2022-12-07T06:57:29;8.00;;;4.30;;
15878;SDS011;61999;51.514;14.614;2022-12-07T06:59:57;14.80;;;8.73;;
15878;SDS011;61999;51.514;14.614;2022-12-07T07:02:26;8.03;;;4.47;;
15878;SDS011;61999;51.514;14.614;2022-12-07T07:04:54;7.30;;;4.10;;
15878;SDS011;61999;51.514;14.614;2022-12-07T07:07:22;10.10;;;6.03;;
15878;SDS011;61999;51.514;14.614;2022-12-07T07:09:50;10.20;;;6.97;;
15878;SDS011;61999;51.514;14.614;2022-12-07T07:12:19;8.23;;;4.40;;
15878;SDS011;61999;51.514;14.614;2022-12-07T07:14:47;12.17;;;7.83;;
15878;SDS011;61999;51.514;14.614;2022-12-07T07:17:15;5.63;;;4.10;;
15878;SDS011;61999;51.514;14.614;2022-12-07T07:19:43;6.37;;;4.10;;
15878;SDS011;61999;51.514;14.614;2022-12-07T07:22:11;7.77;;;5.37;;
15878;SDS011;61999;51.514;14.614;2022-12-07T07:24:39;13.27;;;7.03;;
15878;SDS011;61999;51.514;14.614;2022-12-07T07:27:07;10.47;;;7.17;;
15878;SDS011;61999;51.514;14.614;2022-12-07T07:29:36;5.40;;;3.50;;
15878;SDS011;61999;51.514;14.614;2022-12-07T07:32:04;12.90;;;6.73;;
15878;SDS011;61999;51.514;14.614;2022-12-07T07:34:33;3.30;;;2.93;;
15878;SDS011;61999;51.514;14.614;2022-12-07T07:37:01;7.50;;;4.67;;
15878;SDS011;61999;51.514;14.614;2022-12-07T07:39:29;11.23;;;5.83;;
15878;SDS011;61999;51.514;14.614;2022-12-07T07:41:57;14.07;;;8.87;;
15878;SDS011;61999;51.514;14.614;2022-12-07T07:44:25;4.77;;;3.40;;
15878;SDS011;61999;51.514;14.614;2022-12-07T07:46:58;7.43;;;3.37;;
15878;SDS011;61999;51.514;14.614;2022-12-07T07:49:26;5.33;;;3.80;;
15878;SDS011;61999;51.514;14.614;2022-12-07T07:51:54;5.47;;;4.03;;
15878;SDS011;61999;51.514;14.614;2022-12-07T07:54:22;7.30;;;4.43;;
15878;SDS011;61999;51.514;14.614;2022-12-07T07:56:50;7.27;;;4.17;;
15878;SDS011;61999;51.514;14.614;2022-12-07T07:59:19;11.37;;;7.30;;
15878;SDS011;61999;51.514;14.614;2022-12-07T08:01:47;4.33;;;3.70;;
15878;SDS011;61999;51.514;14.614;2022-12-07T08:04:16;4.47;;;3.70;;
15878;SDS011;61999;51.514;14.614;2022-12-07T08:06:44;12.13;;;8.10;;
15878;SDS011;61999;51.514;14.614;2022-12-07T08:09:12;6.40;;;4.33;;
15878;SDS011;61999;51.514;14.614;2022-12-07T08:11:43;10.80;;;6.30;;
15878;SDS011;61999;51.514;14.614;2022-12-07T08:14:11;6.53;;;3.87;;
15878;SDS011;61999;51.514;14.614;2022-12-07T08:16:39;4.90;;;3.20;;
15878;SDS011;61999;51.514;14.614;2022-12-07T08:19:07;4.80;;;3.63;;
15878;SDS011;61999;51.514;14.614;2022-12-07T08:21:36;8.17;;;5.07;;
15878;SDS011;61999;51.514;14.614;2022-12-07T08:24:05;6.43;;;3.57;;
15878;SDS011;61999;51.514;14.614;2022-12-07T08:26:33;9.30;;;6.10;;
15878;SDS011;61999;51.514;14.614;2022-12-07T08:29:02;7.70;;;5.33;;
15878;SDS011;61999;51.514;14.614;2022-12-07T08:31:30;6.20;;;4.07;;
15878;SDS011;61999;51.514;14.614;2022-12-07T08:33:58;3.87;;;2.80;;
15878;SDS011;61999;51.514;14.614;2022-12-07T08:36:26;11.57;;;6.80;;
15878;SDS011;61999;51.514;14.614;2022-12-07T08:38:55;5.10;;;3.93;;
15878;SDS011;61999;51.514;14.614;2022-12-07T08:41:43;6.33;;;4.07;;
15878;SDS011;61999;51.514;14.614;2022-12-07T08:44:11;5.23;;;4.00;;
15878;SDS011;61999;51.514;14.614;2022-12-07T08:46:40;9.47;;;5.97;;
15878;SDS011;61999;51.514;14.614;2022-12-07T08:49:15;11.00;;;5.13;;
15878;SDS011;61999;51.514;14.614;2022-12-07T08:51:50;7.73;;;5.87;;
15878;SDS011;61999;51.514;14.614;2022-12-07T08:54:20;8.10;;;5.87;;
15878;SDS011;61999;51.514;14.614;2022-12-07T08:56:48;4.80;;;4.00;;
15878;SDS011;61999;51.514;14.614;2022-12-07T08:59:22;12.70;;;7.47;;
15878;SDS011;61999;51.514;14.614;2022-12-07T09:01:51;6.70;;;4.80;;
15878;SDS011;61999;51.514;14.614;2022-12-07T09:04:19;7.90;;;5.13;;
15878;SDS011;61999;51.514;14.614;2022-12-07T09:06:47;3.57;;;3.23;;
15878;SDS011;61999;51.514;14.614;2022-12-07T09:09:15;3.63;;;2.87;;
15878;SDS011;61999;51.514;14.614;2022-12-07T09:11:45;6.30;;;5.23;;
15878;SDS011;61999;51.514;14.614;2022-12-07T09:14:13;5.10;;;3.97;;
15878;SDS011;61999;51.514;14.614;2022-12-07T09:16:41;7.77;;;5.97;;
15878;SDS011;61999;51.514;14.614;2022-12-07T09:19:09;3.77;;;3.47;;
15878;SDS011;61999;51.514;14.614;2022-12-07T09:21:37;6.93;;;4.53;;
15878;SDS011;61999;51.514;14.614;2022-12-07T09:24:05;10.20;;;7.37;;
15878;SDS011;61999;51.514;14.614;2022-12-07T09:26:35;4.63;;;3.37;;
15878;SDS011;61999;51.514;14.614;2022-12-07T09:29:06;11.57;;;7.67;;
15878;SDS011;61999;51.514;14.614;2022-12-07T09:31:35;2.97;;;2.50;;
15878;SDS011;61999;51.514;14.614;2022-12-07T09:34:04;8.00;;;5.10;;
15878;SDS011;61999;51.514;14.614;2022-12-07T09:36:33;9.60;;;5.90;;
15878;SDS011;61999;51.514;14.614;2022-12-07T09:39:01;9.80;;;6.27;;
15878;SDS011;61999;51.514;14.614;2022-12-07T09:41:31;3.67;;;3.30;;
15878;SDS011;61999;51.514;14.614;2022-12-07T09:44:02;6.00;;;3.80;;
15878;SDS011;61999;51.514;14.614;2022-12-07T09:46:39;5.03;;;3.23;;
15878;SDS011;61999;51.514;14.614;2022-12-07T09:49:10;2.93;;;2.63;;
15878;SDS011;61999;51.514;14.614;2022-12-07T09:51:43;7.60;;;5.07;;
15878;SDS011;61999;51.514;14.614;2022-12-07T09:54:13;8.53;;;6.37;;
15878;SDS011;61999;51.514;14.614;2022-12-07T09:56:43;4.93;;;3.00;;
15878;SDS011;61999;51.514;14.614;2022-12-07T09:59:12;2.10;;;1.83;;
15878;SDS011;61999;51.514;14.614;2022-12-07T10:01:47;8.37;;;4.53;;
15878;SDS011;61999;51.514;14.614;2022-12-07T10:04:18;7.90;;;6.23;;
15878;SDS011;61999;51.514;14.614;2022-12-07T10:06:49;11.20;;;6.33;;
15878;SDS011;61999;51.514;14.614;2022-12-07T10:09:18;8.53;;;6.87;;
15878;SDS011;61999;51.514;14.614;2022-12-07T10:14:38;11.60;;;4.90;;
15878;SDS011;61999;51.514;14.614;2022-12-07T10:17:38;7.60;;;5.03;;
15878;SDS011;61999;51.514;14.614;2022-12-07T10:20:14;9.93;;;7.40;;
15878;SDS011;61999;51.514;14.614;2022-12-07T10:22:54;7.73;;;4.87;;
15878;SDS011;61999;51.514;14.614;2022-12-07T10:25:29;7.90;;;6.47;;
15878;SDS011;61999;51.514;14.614;2022-12-07T10:28:00;10.37;;;6.40;;
15878;SDS011;61999;51.514;14.614;2022-12-07T10:30:51;8.23;;;6.00;;
15878;SDS011;61999;51.514;14.614;2022-12-07T10:33:31;8.83;;;7.03;;
15878;SDS011;61999;51.514;14.614;2022-12-07T10:36:15;10.07;;;7.50;;
15878;SDS011;61999;51.514;14.614;2022-12-07T10:38:49;4.97;;;3.73;;
15878;SDS011;61999;51.514;14.614;2022-12-07T10:41:20;10.23;;;8.00;;
15878;SDS011;61999;51.514;14.614;2022-12-07T10:43:50;7.30;;;6.00;;
15878;SDS011;61999;51.514;14.614;2022-12-07T10:49:48;4.30;;;3.90;;
15878;SDS011;61999;51.514;14.614;2022-12-07T10:52:52;8.13;;;7.17;;
15878;SDS011;61999;51.514;14.614;2022-12-07T10:55:53;8.57;;;6.80;;
15878;SDS011;61999;51.514;14.614;2022-12-07T10:58:43;7.03;;;5.77;;
15878;SDS011;61999;51.514;14.614;2022-12-07T11:01:31;9.27;;;6.77;;
15878;SDS011;61999;51.514;14.614;2022-12-07T11:04:12;4.87;;;4.33;;
15878;SDS011;61999;51.514;14.614;2022-12-07T11:07:06;7.17;;;4.87;;
15878;SDS011;61999;51.514;14.614;2022-12-07T11:09:53;9.03;;;6.53;;
15878;SDS011;61999;51.514;14.614;2022-12-07T11:12:37;6.80;;;5.97;;
15878;SDS011;61999;51.514;14.614;2022-12-07T11:15:26;5.20;;;3.97;;
15878;SDS011;61999;51.514;14.614;2022-12-07T11:18:09;6.33;;;4.37;;
15878;SDS011;61999;51.514;14.614;2022-12-07T11:20:50;6.37;;;4.80;;
15878;SDS011;61999;51.514;14.614;2022-12-07T11:23:42;6.13;;;3.27;;
15878;SDS011;61999;51.514;14.614;2022-12-07T11:26:23;8.40;;;5.23;;
15878;SDS011;61999;51.514;14.614;2022-12-07T11:29:13;5.40;;;4.73;;
15878;SDS011;61999;51.514;14.614;2022-12-07T11:32:02;3.30;;;3.00;;
15878;SDS011;61999;51.514;14.614;2022-12-07T11:34:41;6.00;;;4.03;;
15878;SDS011;61999;51.514;14.614;2022-12-07T11:37:30;4.83;;;3.93;;
15878;SDS011;61999;51.514;14.614;2022-12-07T11:40:11;5.57;;;4.17;;
15878;SDS011;61999;51.514;14.614;2022-12-07T11:42:49;7.33;;;4.83;;
15878;SDS011;61999;51.514;14.614;2022-12-07T11:45:26;5.10;;;4.07;;
15878;SDS011;61999;51.514;14.614;2022-12-07T11:47:58;8.70;;;4.07;;
15878;SDS011;61999;51.514;14.614;2022-12-07T11:50:33;4.67;;;4.17;;
15878;SDS011;61999;51.514;14.614;2022-12-07T11:53:10;6.97;;;4.33;;
15878;SDS011;61999;51.514;14.614;2022-12-07T11:55:50;6.73;;;4.30;;
15878;SDS011;61999;51.514;14.614;2022-12-07T11:58:34;4.17;;;3.77;;
15878;SDS011;61999;51.514;14.614;2022-12-07T12:01:24;4.77;;;4.17;;
15878;SDS011;61999;51.514;14.614;2022-12-07T12:04:07;4.17;;;3.57;;
15878;SDS011;61999;51.514;14.614;2022-12-07T12:06:55;5.37;;;3.80;;
15878;SDS011;61999;51.514;14.614;2022-12-07T12:09:45;5.53;;;3.87;;
15878;SDS011;61999;51.514;14.614;2022-12-07T12:12:34;4.57;;;3.73;;
15878;SDS011;61999;51.514;14.614;2022-12-07T12:16:20;4.50;;;2.07;;
15878;SDS011;61999;51.514;14.614;2022-12-07T12:19:25;5.57;;;2.70;;
15878;SDS011;61999;51.514;14.614;2022-12-07T12:22:03;5.70;;;3.97;;
15878;SDS011;61999;51.514;14.614;2022-12-07T12:24:41;5.87;;;3.70;;
15878;SDS011;61999;51.514;14.614;2022-12-07T12:27:17;4.17;;;3.73;;
15878;SDS011;61999;51.514;14.614;2022-12-07T12:29:54;3.73;;;3.17;;
15878;SDS011;61999;51.514;14.614;2022-12-07T12:32:30;3.53;;;2.93;;
15878;SDS011;61999;51.514;14.614;2022-12-07T12:35:20;3.77;;;3.20;;
15878;SDS011;61999;51.514;14.614;2022-12-07T12:40:56;6.10;;;3.50;;
15878;SDS011;61999;51.514;14.614;2022-12-07T12:52:49;5.50;;;3.97;;
15878;SDS011;61999;51.514;14.614;2022-12-07T12:55:50;4.67;;;3.57;;
15878;SDS011;61999;51.514;14.614;2022-12-07T12:58:46;3.80;;;3.37;;
15878;SDS011;61999;51.514;14.614;2022-12-07T13:04:24;5.47;;;4.37;;
15878;SDS011;61999;51.514;14.614;2022-12-07T13:07:13;5.63;;;3.10;;
15878;SDS011;61999;51.514;14.614;2022-12-07T13:10:24;4.67;;;3.50;;
15878;SDS011;61999;51.514;14.614;2022-12-07T13:22:42;3.60;;;3.00;;
15878;SDS011;61999;51.514;14.614;2022-12-07T13:25:21;5.83;;;3.90;;
15878;SDS011;61999;51.514;14.614;2022-12-07T13:28:00;4.63;;;3.43;;
15878;SDS011;61999;51.514;14.614;2022-12-07T13:30:40;3.97;;;3.47;;
15878;SDS011;61999;51.514;14.614;2022-12-07T13:33:27;3.10;;;2.80;;
15878;SDS011;61999;51.514;14.614;2022-12-07T13:35:58;4.77;;;3.53;;
15878;SDS011;61999;51.514;14.614;2022-12-07T13:38:27;3.67;;;2.73;;
15878;SDS011;61999;51.514;14.614;2022-12-07T13:41:00;4.90;;;3.03;;
15878;SDS011;61999;51.514;14.614;2022-12-07T13:43:31;3.80;;;3.40;;
15878;SDS011;61999;51.514;14.614;2022-12-07T13:46:09;5.27;;;3.50;;
15878;SDS011;61999;51.514;14.614;2022-12-07T13:48:44;3.57;;;3.10;;
15878;SDS011;61999;51.514;14.614;2022-12-07T13:51:20;3.53;;;2.93;;
15878;SDS011;61999;51.514;14.614;2022-12-07T13:53:52;3.30;;;2.93;;
15878;SDS011;61999;51.514;14.614;2022-12-07T13:56:22;3.37;;;2.40;;
15878;SDS011;61999;51.514;14.614;2022-12-07T13:58:59;3.37;;;2.80;;
15878;SDS011;61999;51.514;14.614;2022-12-07T14:01:28;6.00;;;2.50;;
15878;SDS011;61999;51.514;14.614;2022-12-07T14:06:49;3.27;;;2.80;;
15878;SDS011;61999;51.514;14.614;2022-12-07T14:09:18;3.37;;;2.57;;
15878;SDS011;61999;51.514;14.614;2022-12-07T14:11:49;4.87;;;2.30;;
15878;SDS011;61999;51.514;14.614;2022-12-07T14:14:20;3.67;;;2.00;;
15878;SDS011;61999;51.514;14.614;2022-12-07T14:16:55;2.27;;;2.03;;
15878;SDS011;61999;51.514;14.614;2022-12-07T14:19:49;3.07;;;2.00;;
15878;SDS011;61999;51.514;14.614;2022-12-07T14:22:26;4.20;;;2.20;;
15878;SDS011;61999;51.514;14.614;2022-12-07T14:24:59;2.60;;;2.07;;
15878;SDS011;61999;51.514;14.614;2022-12-07T14:27:53;2.87;;;2.17;;
15878;SDS011;61999;51.514;14.614;2022-12-07T14:30:25;5.43;;;1.90;;
15878;SDS011;61999;51.514;14.614;2022-12-07T14:32:57;3.60;;;1.93;;
15878;SDS011;61999;51.514;14.614;2022-12-07T14:35:29;5.10;;;2.00;;
15878;SDS011;61999;51.514;14.614;2022-12-07T14:38:01;5.03;;;2.00;;
15878;SDS011;61999;51.514;14.614;2022-12-07T14:40:29;1.03;;;0.93;;
15878;SDS011;61999;51.514;14.614;2022-12-07T14:42:59;3.37;;;1.87;;
15878;SDS011;61999;51.514;14.614;2022-12-07T14:45:30;1.77;;;1.50;;
15878;SDS011;61999;51.514;14.614;2022-12-07T14:47:58;2.63;;;1.80;;
15878;SDS011;61999;51.514;14.614;2022-12-07T14:50:48;1.90;;;1.33;;
15878;SDS011;61999;51.514;14.614;2022-12-07T14:53:41;1.40;;;1.30;;
15878;SDS011;61999;51.514;14.614;2022-12-07T14:56:16;1.93;;;1.50;;
15878;SDS011;61999;51.514;14.614;2022-12-07T14:58:44;1.67;;;1.30;;
15878;SDS011;61999;51.514;14.614;2022-12-07T15:01:14;2.07;;;1.77;;
15878;SDS011;61999;51.514;14.614;2022-12-07T15:03:43;5.07;;;2.00;;
15878;SDS011;61999;51.514;14.614;2022-12-07T15:06:13;3.77;;;1.50;;
15878;SDS011;61999;51.514;14.614;2022-12-07T15:08:45;2.47;;;1.53;;
15878;SDS011;61999;51.514;14.614;2022-12-07T15:11:14;1.67;;;1.30;;
15878;SDS011;61999;51.514;14.614;2022-12-07T15:13:43;1.77;;;1.50;;
15878;SDS011;61999;51.514;14.614;2022-12-07T15:16:29;2.63;;;1.83;;
15878;SDS011;61999;51.514;14.614;2022-12-07T15:19:06;2.43;;;2.23;;
15878;SDS011;61999;51.514;14.614;2022-12-07T15:21:52;5.17;;;1.97;;
15878;SDS011;61999;51.514;14.614;2022-12-07T15:24:22;2.60;;;2.00;;
15878;SDS011;61999;51.514;14.614;2022-12-07T15:26:51;4.83;;;2.33;;
15878;SDS011;61999;51.514;14.614;2022-12-07T15:29:19;5.30;;;1.77;;
15878;SDS011;61999;51.514;14.614;2022-12-07T15:31:48;3.00;;;2.20;;
15878;SDS011;61999;51.514;14.614;2022-12-07T15:34:22;2.60;;;2.40;;
15878;SDS011;61999;51.514;14.614;2022-12-07T15:36:51;4.47;;;2.53;;
15878;SDS011;61999;51.514;14.614;2022-12-07T15:39:19;3.40;;;2.30;;
15878;SDS011;61999;51.514;14.614;2022-12-07T15:41:49;5.27;;;2.73;;
15878;SDS011;61999;51.514;14.614;2022-12-07T15:44:17;6.33;;;3.00;;
15878;SDS011;61999;51.514;14.614;2022-12-07T15:47:03;3.83;;;3.03;;
15878;SDS011;61999;51.514;14.614;2022-12-07T15:49:32;2.83;;;2.60;;
15878;SDS011;61999;51.514;14.614;2022-12-07T15:52:00;3.10;;;2.73;;
15878;SDS011;61999;51.514;14.614;2022-12-07T15:54:28;3.50;;;2.80;;
15878;SDS011;61999;51.514;14.614;2022-12-07T15:56:59;4.10;;;3.03;;
15878;SDS011;61999;51.514;14.614;2022-12-07T15:59:28;4.50;;;3.57;;
15878;SDS011;61999;51.514;14.614;2022-12-07T16:01:56;4.47;;;3.80;;
15878;SDS011;61999;51.514;14.614;2022-12-07T16:04:26;2.97;;;2.37;;
15878;SDS011;61999;51.514;14.614;2022-12-07T16:06:55;4.67;;;3.37;;
15878;SDS011;61999;51.514;14.614;2022-12-07T16:09:23;5.10;;;4.10;;
15878;SDS011;61999;51.514;14.614;2022-12-07T16:11:51;8.30;;;3.93;;
15878;SDS011;61999;51.514;14.614;2022-12-07T16:14:21;5.23;;;3.50;;
15878;SDS011;61999;51.514;14.614;2022-12-07T16:16:49;7.13;;;3.93;;
15878;SDS011;61999;51.514;14.614;2022-12-07T16:19:17;6.03;;;2.77;;
15878;SDS011;61999;51.514;14.614;2022-12-07T16:21:45;4.00;;;3.60;;
15878;SDS011;61999;51.514;14.614;2022-12-07T16:24:13;7.10;;;4.50;;
15878;SDS011;61999;51.514;14.614;2022-12-07T16:26:41;5.00;;;3.93;;
15878;SDS011;61999;51.514;14.614;2022-12-07T16:29:13;6.90;;;4.43;;
15878;SDS011;61999;51.514;14.614;2022-12-07T16:31:42;5.90;;;4.53;;
15878;SDS011;61999;51.514;14.614;2022-12-07T16:34:10;6.03;;;4.67;;
15878;SDS011;61999;51.514;14.614;2022-12-07T16:36:39;7.40;;;4.93;;
15878;SDS011;61999;51.514;14.614;2022-12-07T16:39:27;2.60;;;2.10;;
15878;SDS011;61999;51.514;14.614;2022-12-07T16:41:55;5.60;;;3.57;;
15878;SDS011;61999;51.514;14.614;2022-12-07T16:44:23;5.80;;;2.40;;
15878;SDS011;61999;51.514;14.614;2022-12-07T16:46:53;7.70;;;4.93;;
15878;SDS011;61999;51.514;14.614;2022-12-07T16:49:21;5.90;;;4.07;;